createdAt,value
2019-04-14T00:01:30.470Z,102316.89
2019-04-14T00:04:02.966Z,102312.41
2019-04-14T00:06:35.088Z,102311.75
2019-04-14T00:09:07.490Z,102305.63
2019-04-14T00:11:38.680Z,102316.94
2019-04-14T00:14:07.754Z,102307.09
2019-04-14T00:16:36.487Z,102307.92
2019-04-14T00:19:06.468Z,102310.36
2019-04-14T00:21:36.777Z,102308.48
2019-04-14T00:24:07.411Z,102308.48
2019-04-14T00:26:37.986Z,102310.38
2019-04-14T00:29:06.894Z,102305.36
2019-04-14T00:31:37.021Z,102301.36
2019-04-14T00:34:07.896Z,102301.80
2019-04-14T00:36:48.189Z,102299.44
2019-04-14T00:39:22.559Z,102305.71
2019-04-14T00:41:56.986Z,102299.72
2019-04-14T00:44:40.974Z,102297.01
2019-04-14T00:50:03.683Z,102292.19
2019-04-14T00:52:34.092Z,102296.38
2019-04-14T00:55:05.937Z,102290.67
2019-04-14T00:57:35.517Z,102292.90
2019-04-14T01:00:08.330Z,102292.33
2019-04-14T01:02:37.115Z,102258.25
2019-04-14T01:05:07.424Z,102294.77
2019-04-14T01:07:36.998Z,102290.77
2019-04-14T01:10:06.422Z,102291.66
2019-04-14T01:12:35.165Z,102292.32
2019-04-14T01:15:05.371Z,102286.50
2019-04-14T01:17:35.192Z,102291.37
2019-04-14T01:20:06.099Z,102285.42
2019-04-14T01:22:35.877Z,102302.42
2019-04-14T01:25:08.566Z,102287.28
2019-04-14T01:27:38.673Z,102292.81
2019-04-14T01:30:09.275Z,102289.66
2019-04-14T01:32:39.300Z,102284.33
2019-04-14T01:35:09.544Z,102283.00
2019-04-14T01:37:39.758Z,102288.99
2019-04-14T01:40:09.981Z,102294.81
2019-04-14T01:42:39.871Z,102291.52
2019-04-14T01:45:12.103Z,102287.48
2019-04-14T01:47:42.069Z,102292.84
2019-04-14T01:50:12.502Z,102293.86
2019-04-14T01:52:43.721Z,102292.15
2019-04-14T01:55:17.760Z,102295.52
2019-04-14T01:58:01.051Z,102295.55
2019-04-14T02:00:42.316Z,102296.38
2019-04-14T02:03:12.765Z,102301.54
2019-04-14T02:05:43.172Z,102297.05
2019-04-14T02:08:13.202Z,102300.09
2019-04-14T02:10:43.458Z,102305.10
2019-04-14T02:13:13.573Z,102304.96
2019-04-14T02:15:42.389Z,102310.30
2019-04-14T02:18:12.116Z,102298.79
2019-04-14T02:20:42.486Z,102303.94
2019-04-14T02:23:12.567Z,102302.95
2019-04-14T02:25:42.785Z,102307.94
2019-04-14T02:28:13.321Z,102308.15
2019-04-14T02:30:54.049Z,102309.30
2019-04-14T02:33:50.829Z,102310.64
2019-04-14T02:36:14.519Z,102310.81
2019-04-14T02:43:51.451Z,102316.26
2019-04-14T02:46:09.958Z,102311.73
2019-04-14T02:51:21.250Z,102323.73
2019-04-14T02:56:16.582Z,102316.89
2019-04-14T02:58:55.222Z,102318.86
2019-04-14T03:01:26.064Z,102317.04
2019-04-14T03:03:43.416Z,102321.22
2019-04-14T03:06:12.083Z,102322.38
2019-04-14T03:08:51.382Z,102322.55
2019-04-14T03:11:21.360Z,102328.22
2019-04-14T03:13:51.741Z,102336.19
2019-04-14T03:16:23.419Z,102338.71
2019-04-14T03:21:40.806Z,102341.23
2019-04-14T03:24:31.628Z,102347.44
2019-04-14T03:34:52.063Z,102336.83
2019-04-14T03:39:49.728Z,102330.84
2019-04-14T03:42:13.142Z,102336.34
2019-04-14T03:44:42.077Z,102337.73
2019-04-14T03:47:13.775Z,102327.70
2019-04-14T03:52:13.514Z,102323.20
2019-04-14T03:54:32.858Z,102333.84
2019-04-14T03:56:51.385Z,102331.38
2019-04-14T03:59:21.830Z,102331.03
2019-04-14T04:01:52.322Z,102328.05
2019-04-14T04:04:21.170Z,102329.55
2019-04-14T04:06:50.991Z,102326.22
2019-04-14T04:09:21.776Z,102329.21
2019-04-14T04:11:50.530Z,102331.20
2019-04-14T04:14:20.301Z,102335.56
2019-04-14T04:16:55.114Z,102343.06
2019-04-14T04:19:31.881Z,102338.86
2019-04-14T04:22:19.261Z,102341.36
2019-04-14T04:24:54.339Z,102344.34
2019-04-14T04:27:30.968Z,102353.36
2019-04-14T04:30:04.251Z,102355.30
2019-04-14T04:32:46.926Z,102354.48
2019-04-14T04:35:34.625Z,102349.96
2019-04-14T04:38:11.790Z,102354.80
2019-04-14T04:40:41.887Z,102355.23
2019-04-14T04:43:12.575Z,102360.70
2019-04-14T04:45:43.100Z,102369.15
2019-04-14T04:48:13.146Z,102366.80
2019-04-14T04:50:43.154Z,102369.25
2019-04-14T04:53:13.740Z,102372.72
2019-04-14T04:55:43.792Z,102376.53
2019-04-14T04:58:13.161Z,102375.20
2019-04-14T05:00:41.910Z,102381.19
2019-04-14T05:03:10.668Z,102386.48
2019-04-14T05:06:11.327Z,102390.66
2019-04-14T05:08:41.808Z,102389.86
2019-04-14T05:11:29.428Z,102391.94
2019-04-14T05:14:00.365Z,102386.02
2019-04-14T05:16:30.073Z,102389.42
2019-04-14T05:19:12.341Z,102388.72
2019-04-14T05:21:29.969Z,102390.89
2019-04-14T05:23:59.163Z,102397.52
2019-04-14T05:26:28.759Z,102385.38
2019-04-14T05:28:59.134Z,102391.16
2019-04-14T05:31:29.395Z,102387.21
2019-04-14T05:33:59.953Z,102388.30
2019-04-14T05:36:30.291Z,102395.58
2019-04-14T05:39:00.222Z,102398.61
2019-04-14T05:41:30.785Z,102393.52
2019-04-14T05:44:03.075Z,102399.00
2019-04-14T05:46:31.682Z,102400.98
2019-04-14T05:49:00.746Z,102404.73
2019-04-14T05:51:30.875Z,102405.41
2019-04-14T05:53:59.652Z,102406.13
2019-04-14T05:56:29.542Z,102409.31
2019-04-14T05:59:00.046Z,102412.11
2019-04-14T06:01:29.405Z,102415.34
2019-04-14T06:04:02.484Z,102414.09
2019-04-14T06:06:33.036Z,102408.81
2019-04-14T06:09:02.527Z,102415.67
2019-04-14T06:11:32.599Z,102407.85
2019-04-14T06:14:01.605Z,102417.48
2019-04-14T06:16:30.344Z,102413.81
2019-04-14T06:18:59.427Z,102419.00
2019-04-14T06:21:28.229Z,102422.12
2019-04-14T06:23:56.972Z,102430.71
2019-04-14T06:26:25.740Z,102431.61
2019-04-14T06:28:54.486Z,102430.44
2019-04-14T06:31:27.964Z,102435.00
2019-04-14T06:34:01.001Z,102430.13
2019-04-14T06:36:37.243Z,102430.13
2019-04-14T06:39:25.460Z,102433.94
2019-04-14T06:41:54.185Z,102432.42
2019-04-14T06:44:22.940Z,102437.91
2019-04-14T06:46:53.328Z,102435.95
2019-04-14T06:49:22.501Z,102436.64
2019-04-14T06:51:51.332Z,102438.34
2019-04-14T06:54:20.073Z,102438.68
2019-04-14T06:56:48.805Z,102438.73
2019-04-14T06:59:17.599Z,102439.11
2019-04-14T07:01:46.348Z,102441.67
2019-04-14T07:04:15.074Z,102439.56
2019-04-14T07:06:43.919Z,102439.20
2019-04-14T07:09:12.684Z,102437.53
2019-04-14T07:11:41.423Z,102446.07
2019-04-14T07:14:10.735Z,102444.98
2019-04-14T07:16:44.989Z,102440.58
2019-04-14T07:19:19.435Z,102440.41
2019-04-14T07:21:50.322Z,102441.67
2019-04-14T07:24:19.457Z,102445.83
2019-04-14T07:26:48.859Z,102444.81
2019-04-14T07:29:17.594Z,102451.64
2019-04-14T07:32:04.034Z,102439.13
2019-04-14T07:34:44.079Z,102445.73
2019-04-14T07:37:23.692Z,102453.56
2019-04-14T07:39:56.863Z,102450.56
2019-04-14T07:42:27.214Z,102437.72
2019-04-14T07:44:57.545Z,102438.47
2019-04-14T07:47:45.251Z,102444.70
2019-04-14T07:50:32.953Z,102441.72
2019-04-14T07:53:15.690Z,102429.20
2019-04-14T07:55:49.022Z,102432.48
2019-04-14T07:58:22.623Z,102428.78
2019-04-14T08:00:53.049Z,102432.61
2019-04-14T08:03:29.225Z,102440.06
2019-04-14T08:05:58.034Z,102434.47
2019-04-14T08:08:27.588Z,102444.08
2019-04-14T08:10:56.426Z,102449.52
2019-04-14T08:13:25.842Z,102445.09
2019-04-14T08:15:55.411Z,102446.13
2019-04-14T08:18:24.265Z,102448.17
2019-04-14T08:20:53.054Z,102450.86
2019-04-14T08:23:27.444Z,102445.92
2019-04-14T08:25:56.258Z,102451.47
2019-04-14T08:28:25.187Z,102442.67
2019-04-14T08:30:55.177Z,102452.55
2019-04-14T08:33:24.096Z,102450.95
2019-04-14T08:35:52.899Z,102458.75
2019-04-14T08:38:21.641Z,102451.90
2019-04-14T08:40:51.307Z,102453.39
2019-04-14T08:43:34.630Z,102457.34
2019-04-14T08:46:08.171Z,102457.87
2019-04-14T08:48:48.721Z,102468.36
2019-04-14T08:51:20.269Z,102455.86
2019-04-14T08:53:59.833Z,102457.13
2019-04-14T08:56:38.947Z,102456.42
2019-04-14T08:59:14.730Z,102449.54
2019-04-14T09:01:54.136Z,102458.29
2019-04-14T09:04:39.411Z,102450.53
2019-04-14T09:07:12.994Z,102450.08
2019-04-14T09:09:55.273Z,102449.66
2019-04-14T09:12:25.724Z,102449.66
2019-04-14T09:14:57.378Z,102453.53
2019-04-14T09:17:29.598Z,102454.33
2019-04-14T09:19:58.425Z,102456.30
2019-04-14T09:22:30.544Z,102455.48
2019-04-14T09:24:59.332Z,102454.77
2019-04-14T09:27:28.075Z,102456.41
2019-04-14T09:29:57.000Z,102458.80
2019-04-14T09:32:27.466Z,102458.90
2019-04-14T09:34:56.263Z,102463.48
2019-04-14T09:37:25.941Z,102393.91
2019-04-14T09:39:54.755Z,102456.09
2019-04-14T09:42:23.838Z,102463.59
2019-04-14T09:44:54.104Z,102471.06
2019-04-14T09:47:22.847Z,102466.70
2019-04-14T09:49:52.361Z,102467.28
2019-04-14T09:52:21.347Z,102463.79
2019-04-14T09:54:50.078Z,102466.72
2019-04-14T09:57:20.617Z,102462.42
2019-04-14T09:59:51.238Z,102460.36
2019-04-14T10:02:20.366Z,102461.19
2019-04-14T10:04:49.196Z,102460.94
2019-04-14T10:07:17.956Z,102460.44
2019-04-14T10:09:46.794Z,102461.81
2019-04-14T10:12:15.653Z,102452.70
2019-04-14T10:14:44.401Z,102452.77
2019-04-14T10:17:13.187Z,102453.84
2019-04-14T10:19:41.936Z,102451.30
2019-04-14T10:22:10.688Z,102452.36
2019-04-14T10:24:39.495Z,102450.31
2019-04-14T10:27:08.465Z,102452.32
2019-04-14T10:29:37.281Z,102449.36
2019-04-14T10:32:06.096Z,102448.73
2019-04-14T10:34:34.880Z,102448.64
2019-04-14T10:37:04.641Z,102458.50
2019-04-14T10:39:33.486Z,102449.21
2019-04-14T10:42:02.284Z,102447.20
2019-04-14T10:44:31.711Z,102445.30
2019-04-14T10:47:00.523Z,102445.76
2019-04-14T10:49:30.652Z,102445.76
2019-04-14T10:51:59.404Z,102445.52
2019-04-14T10:54:28.187Z,102453.58
2019-04-14T10:56:56.964Z,102459.49
2019-04-14T10:59:25.704Z,102443.44
2019-04-14T11:01:54.535Z,102441.93
2019-04-14T11:04:23.261Z,102437.44
2019-04-14T11:06:57.012Z,102448.35
2019-04-14T11:09:29.555Z,102442.17
2019-04-14T11:11:58.675Z,102438.46
2019-04-14T11:14:27.541Z,102447.27
2019-04-14T11:16:56.352Z,102433.45
2019-04-14T11:19:25.141Z,102435.28
2019-04-14T11:21:55.528Z,102437.27
2019-04-14T11:24:25.134Z,102434.80
2019-04-14T11:26:54.066Z,102431.84
2019-04-14T11:29:22.881Z,102436.36
2019-04-14T11:31:55.980Z,102435.14
2019-04-14T11:34:35.245Z,102392.80
2019-04-14T11:37:11.745Z,102435.59
2019-04-14T11:39:41.452Z,102428.15
2019-04-14T11:42:10.246Z,102438.03
2019-04-14T11:44:39.127Z,102428.03
2019-04-14T11:47:08.829Z,102430.77
2019-04-14T11:49:37.597Z,102426.54
2019-04-14T11:52:06.395Z,102430.66
2019-04-14T11:54:35.162Z,102345.31
2019-04-14T11:57:03.961Z,102426.82
2019-04-14T11:59:37.005Z,102427.05
2019-04-14T12:02:13.512Z,102436.95
2019-04-14T12:04:46.970Z,102434.42
2019-04-14T12:07:20.282Z,102436.19
2019-04-14T12:10:05.519Z,102439.66
2019-04-14T12:12:34.276Z,102431.80
2019-04-14T12:15:03.141Z,102432.32
2019-04-14T12:17:31.909Z,102424.38
2019-04-14T12:20:00.644Z,102427.48
2019-04-14T12:22:29.475Z,102425.77
2019-04-14T12:24:58.222Z,102426.90
2019-04-14T12:27:26.950Z,102431.14
2019-04-14T12:29:56.698Z,102431.38
2019-04-14T12:32:27.626Z,102437.72
2019-04-14T12:34:56.408Z,102430.58
2019-04-14T12:37:25.170Z,102447.56
2019-04-14T12:39:53.906Z,102442.45
2019-04-14T12:42:24.302Z,102440.37
2019-04-14T12:45:00.694Z,102438.73
2019-04-14T12:47:45.960Z,102448.88
2019-04-14T12:50:29.104Z,102452.67
2019-04-14T12:52:59.529Z,102447.20
2019-04-14T12:55:29.079Z,102449.44
2019-04-14T12:57:59.452Z,102447.83
2019-04-14T13:00:38.828Z,102450.74
2019-04-14T13:03:07.602Z,102448.91
2019-04-14T13:05:36.353Z,102441.98
2019-04-14T13:08:05.445Z,102446.60
2019-04-14T13:10:34.333Z,102450.63
2019-04-14T13:13:03.076Z,102444.17
2019-04-14T13:15:31.807Z,102443.41
2019-04-14T13:18:01.250Z,102441.94
2019-04-14T13:20:30.147Z,102435.77
2019-04-14T13:22:58.886Z,102436.00
2019-04-14T13:25:27.665Z,102437.52
2019-04-14T13:27:56.416Z,102437.52
2019-04-14T13:30:26.771Z,102434.10
2019-04-14T13:32:55.549Z,102437.47
2019-04-14T13:35:24.322Z,102439.75
2019-04-14T13:37:53.058Z,102424.54
2019-04-14T13:40:21.824Z,102427.91
2019-04-14T13:42:50.612Z,102427.25
2019-04-14T13:45:19.396Z,102419.53
2019-04-14T13:47:48.292Z,102418.48
2019-04-14T13:50:17.028Z,102416.55
2019-04-14T13:52:47.312Z,102417.33
2019-04-14T13:55:16.352Z,102419.19
2019-04-14T13:57:45.131Z,102415.44
2019-04-14T14:00:15.146Z,102412.85
2019-04-14T14:02:44.378Z,102410.70
2019-04-14T14:05:13.134Z,102417.13
2019-04-14T14:07:41.930Z,102413.34
2019-04-14T14:10:11.183Z,102407.57
2019-04-14T14:12:57.478Z,102402.67
2019-04-14T14:15:45.954Z,102411.53
2019-04-14T14:18:34.198Z,102408.25
2019-04-14T14:21:04.590Z,102406.38
2019-04-14T14:23:50.935Z,102398.41
2019-04-14T14:26:24.611Z,102398.22
2019-04-14T14:28:53.356Z,102388.14
2019-04-14T14:31:22.810Z,102383.20
2019-04-14T14:33:51.738Z,102384.04
2019-04-14T14:36:20.478Z,102388.04
2019-04-14T14:38:49.254Z,102384.41
2019-04-14T14:41:18.108Z,102389.80
2019-04-14T14:43:47.281Z,102394.09
2019-04-14T14:46:20.496Z,102389.56
2019-04-14T14:49:06.008Z,102384.30
2019-04-14T14:51:52.749Z,102390.93
2019-04-14T14:54:23.851Z,102383.63
2019-04-14T14:56:52.743Z,102383.73
2019-04-14T14:59:22.054Z,102385.20
2019-04-14T15:01:50.795Z,102385.87
2019-04-14T15:04:20.228Z,102386.91
2019-04-14T15:06:50.971Z,102379.45
2019-04-14T15:09:24.836Z,102385.00
2019-04-14T15:11:54.520Z,102391.73
2019-04-14T15:14:24.316Z,102392.36
2019-04-14T15:16:53.055Z,102391.82
2019-04-14T15:19:21.858Z,102380.84
2019-04-14T15:21:50.783Z,102387.16
2019-04-14T15:24:19.573Z,102383.50
2019-04-14T15:26:48.395Z,102389.31
2019-04-14T15:29:17.171Z,102392.81
2019-04-14T15:31:45.983Z,102392.48
2019-04-14T15:34:14.847Z,102392.22
2019-04-14T15:36:44.308Z,102386.03
2019-04-14T15:39:13.431Z,102389.60
2019-04-14T15:41:42.316Z,102389.45
2019-04-14T15:44:11.186Z,102388.83
2019-04-14T15:46:39.962Z,102384.08
2019-04-14T15:49:08.716Z,102392.52
2019-04-14T15:51:37.557Z,102395.70
2019-04-14T15:54:06.304Z,102397.52
2019-04-14T15:56:39.346Z,102407.56
2019-04-14T15:59:12.748Z,102406.04
2019-04-14T16:01:43.115Z,102400.95
2019-04-14T16:04:19.240Z,102407.97
2019-04-14T16:07:01.757Z,102410.06
2019-04-14T16:09:38.265Z,102411.33
2019-04-14T16:12:08.620Z,102420.60
2019-04-14T16:14:44.799Z,102415.61
2019-04-14T16:17:24.184Z,102420.39
2019-04-14T16:20:06.497Z,102427.66
2019-04-14T16:22:35.245Z,102421.61
2019-04-14T16:25:04.854Z,102422.27
2019-04-14T16:27:35.236Z,102417.47
2019-04-14T16:30:09.246Z,102426.09
2019-04-14T16:32:39.607Z,102417.88
2019-04-14T16:35:09.986Z,102425.90
2019-04-14T16:37:38.725Z,102423.61
2019-04-14T16:40:07.558Z,102427.77
2019-04-14T16:42:36.400Z,102430.88
2019-04-14T16:45:08.046Z,102431.91
2019-04-14T16:47:36.819Z,102435.22
2019-04-14T16:50:06.964Z,102445.00
2019-04-14T16:52:37.345Z,102437.21
2019-04-14T16:55:17.084Z,102446.33
2019-04-14T16:57:50.208Z,102449.51
2019-04-14T17:00:23.284Z,102453.33
2019-04-14T17:02:52.038Z,102459.66
2019-04-14T17:05:20.809Z,102457.98
2019-04-14T17:07:49.643Z,102455.56
2019-04-14T17:10:18.459Z,102460.96
2019-04-14T17:12:47.212Z,102461.66
2019-04-14T17:15:18.827Z,102470.05
2019-04-14T17:18:07.095Z,102468.48
2019-04-14T17:20:46.570Z,102465.71
2019-04-14T17:23:31.813Z,102467.57
2019-04-14T17:26:11.384Z,102471.10
2019-04-14T17:28:44.558Z,102464.39
2019-04-14T17:31:20.797Z,102472.67
2019-04-14T17:33:51.156Z,102317.32
2019-04-14T17:36:36.843Z,102481.81
2019-04-14T17:39:26.664Z,102485.72
2019-04-14T17:42:00.245Z,102480.73
2019-04-14T17:44:30.585Z,102483.10
2019-04-14T17:47:06.877Z,102494.07
2019-04-14T17:49:37.259Z,102498.34
2019-04-14T17:52:24.111Z,102494.18
2019-04-14T17:55:10.733Z,102499.83
2019-04-14T17:57:41.058Z,102505.44
2019-04-14T18:00:20.989Z,102506.56
2019-04-14T18:02:54.053Z,102503.42
2019-04-14T18:05:24.622Z,102507.98
2019-04-14T18:07:55.170Z,102514.13
2019-04-14T18:10:34.467Z,102511.58
2019-04-14T18:13:22.187Z,102516.47
2019-04-14T18:15:54.896Z,102518.39
2019-04-14T18:18:37.362Z,102513.89
2019-04-14T18:21:07.740Z,102516.77
2019-04-14T18:23:36.545Z,102505.83
2019-04-14T18:26:05.336Z,102508.19
2019-04-14T18:28:35.699Z,102515.47
2019-04-14T18:31:06.859Z,102512.37
2019-04-14T18:33:37.275Z,102497.98
2019-04-14T18:36:10.708Z,102515.52
2019-04-14T18:38:43.779Z,102517.97
2019-04-14T18:41:26.398Z,102523.69
2019-04-14T18:44:11.853Z,102523.19
2019-04-14T18:46:42.221Z,102520.61
2019-04-14T18:49:12.527Z,102516.72
2019-04-14T18:51:42.854Z,102526.41
2019-04-14T18:54:13.218Z,102524.80
2019-04-14T18:56:49.554Z,102531.86
2019-04-14T18:59:25.880Z,102531.73
2019-04-14T19:01:56.211Z,102535.78
2019-04-14T19:04:25.143Z,102536.67
2019-04-14T19:06:53.898Z,102540.59
2019-04-14T19:09:23.212Z,102548.21
2019-04-14T19:11:53.633Z,102544.05
2019-04-14T19:14:31.926Z,102549.55
2019-04-14T19:17:02.306Z,102550.57
2019-04-14T19:19:32.707Z,102548.78
2019-04-14T19:22:01.475Z,102556.34
2019-04-14T19:24:30.231Z,102558.52
2019-04-14T19:26:59.067Z,102563.91
2019-04-14T19:29:27.945Z,102562.35
2019-04-14T19:31:56.777Z,102562.18
2019-04-14T19:34:25.529Z,102563.33
2019-04-14T19:36:54.307Z,102565.52
2019-04-14T19:39:24.205Z,102568.89
2019-04-14T19:41:54.823Z,102570.23
2019-04-14T19:44:24.563Z,102575.31
2019-04-14T19:46:53.407Z,102570.95
2019-04-14T19:49:22.227Z,102576.38
2019-04-14T19:51:51.213Z,102577.22
2019-04-14T19:54:19.946Z,102582.72
2019-04-14T19:56:48.752Z,102585.80
2019-04-14T19:59:17.489Z,102591.34
2019-04-14T20:01:46.219Z,102591.77
2019-04-14T20:04:15.033Z,102594.25
2019-04-14T20:06:43.809Z,102596.52
2019-04-14T20:09:12.616Z,102598.16
2019-04-14T20:11:41.457Z,102599.84
2019-04-14T20:14:10.294Z,102602.41
2019-04-14T20:16:59.967Z,102600.59
2019-04-14T20:19:48.640Z,102604.21
2019-04-14T20:22:21.731Z,102610.23
2019-04-14T20:25:08.081Z,102621.92
2019-04-14T20:27:44.489Z,102619.09
2019-04-14T20:30:14.925Z,102617.63
2019-04-14T20:32:46.605Z,102619.61
2019-04-14T20:35:16.685Z,102615.91
2019-04-14T20:37:46.204Z,102621.83
2019-04-14T20:40:15.175Z,102618.71
2019-04-14T20:42:43.965Z,102622.28
2019-04-14T20:45:13.843Z,102629.85
2019-04-14T20:47:42.639Z,102621.28
2019-04-14T20:50:12.359Z,102631.21
2019-04-14T20:52:41.085Z,102629.61
2019-04-14T20:55:10.013Z,102626.45
2019-04-14T20:57:38.817Z,102629.14
2019-04-14T21:00:12.448Z,102628.88
2019-04-14T21:02:59.037Z,102627.70
2019-04-14T21:05:42.271Z,102625.86
2019-04-14T21:08:30.794Z,102626.56
2019-04-14T21:11:07.486Z,102632.54
2019-04-14T21:13:40.826Z,102634.56
2019-04-14T21:16:27.361Z,102628.79
2019-04-14T21:19:13.012Z,102629.30
2019-04-14T21:21:58.297Z,102630.48
2019-04-14T21:24:35.472Z,102627.66
2019-04-14T21:27:24.577Z,102635.65
2019-04-14T21:29:54.924Z,102626.56
2019-04-14T21:32:25.417Z,102622.80
2019-04-14T21:35:01.814Z,102617.54
2019-04-14T21:37:32.154Z,102616.57
2019-04-14T21:40:05.565Z,102616.31
2019-04-14T21:42:34.344Z,102611.85
2019-04-14T21:45:03.083Z,102608.75
2019-04-14T21:47:31.908Z,102613.80
2019-04-14T21:50:00.643Z,102609.89
2019-04-14T21:52:33.661Z,102616.31
2019-04-14T21:55:02.473Z,102615.80
2019-04-14T21:57:44.694Z,102613.40
2019-04-14T22:00:18.773Z,102610.51
2019-04-14T22:02:55.519Z,102612.19
2019-04-14T22:05:42.849Z,102613.27
2019-04-14T22:08:17.211Z,102613.06
2019-04-14T22:10:54.064Z,102620.14
2019-04-14T22:13:23.882Z,102621.27
2019-04-14T22:15:53.604Z,102617.83
2019-04-14T22:18:23.323Z,102615.89
2019-04-14T22:20:52.830Z,102613.20
2019-04-14T22:23:22.338Z,102614.03
2019-04-14T22:25:51.943Z,102616.09
2019-04-14T22:28:21.537Z,102614.98
2019-04-14T22:30:51.057Z,102615.12
2019-04-14T22:33:20.589Z,102615.53
2019-04-14T22:35:50.282Z,102616.03
2019-04-14T22:38:19.768Z,102618.77
2019-04-14T22:40:49.284Z,102621.24
2019-04-14T22:43:19.082Z,102614.69
2019-04-14T22:45:48.671Z,102621.75
2019-04-14T22:48:18.316Z,102613.08
2019-04-14T22:50:47.956Z,102612.48
2019-04-14T22:53:17.567Z,102609.35
2019-04-14T22:55:47.178Z,102603.95
2019-04-14T22:58:16.817Z,102601.26
2019-04-14T23:00:50.441Z,102609.69
2019-04-14T23:03:39.557Z,102609.56
2019-04-14T23:06:10.534Z,102612.75
2019-04-14T23:08:44.499Z,102619.44
2019-04-14T23:11:31.934Z,102612.18
2019-04-14T23:14:18.055Z,102610.30
2019-04-14T23:16:51.961Z,102610.16
2019-04-14T23:19:40.516Z,102613.83
2019-04-14T23:22:18.356Z,102609.96
2019-04-14T23:24:48.669Z,102605.19
2019-04-14T23:27:17.446Z,102608.62
2019-04-14T23:29:46.230Z,102610.63
2019-04-14T23:32:14.979Z,102620.05
2019-04-14T23:34:43.712Z,102619.97
2019-04-14T23:37:12.513Z,102624.34
2019-04-14T23:39:41.263Z,102613.39
2019-04-14T23:42:10.095Z,102399.54
2019-04-14T23:44:38.941Z,102628.24
2019-04-14T23:47:07.794Z,102625.25
2019-04-14T23:49:36.603Z,102626.23
2019-04-14T23:52:05.369Z,102627.20
2019-04-14T23:54:34.117Z,102627.58
2019-04-14T23:57:06.098Z,102627.95
2019-04-14T23:59:33.391Z,102624.11
